sensor_id;sensor_type;location;lat;lon;timestamp;P1;durP1;ratioP1;P2;durP2;ratioP2
64816;SDS011;53289;45.602;11.904;2022-10-10T00:00:02;6.18;;;3.88;;
64816;SDS011;53289;45.602;11.904;2022-10-10T00:02:30;7.40;;;4.30;;
64816;SDS011;53289;45.602;11.904;2022-10-10T00:04:55;6.32;;;4.07;;
64816;SDS011;53289;45.602;11.904;2022-10-10T00:07:21;9.20;;;4.55;;
64816;SDS011;53289;45.602;11.904;2022-10-10T00:09:47;6.40;;;4.47;;
64816;SDS011;53289;45.602;11.904;2022-10-10T00:12:13;6.07;;;3.97;;
64816;SDS011;53289;45.602;11.904;2022-10-10T00:14:39;7.70;;;4.07;;
64816;SDS011;53289;45.602;11.904;2022-10-10T00:17:04;5.95;;;3.85;;
64816;SDS011;53289;45.602;11.904;2022-10-10T00:19:30;7.53;;;3.85;;
64816;SDS011;53289;45.602;11.904;2022-10-10T00:21:56;8.07;;;4.80;;
64816;SDS011;53289;45.602;11.904;2022-10-10T00:24:22;8.20;;;5.10;;
64816;SDS011;53289;45.602;11.904;2022-10-10T00:26:48;13.40;;;5.50;;
64816;SDS011;53289;45.602;11.904;2022-10-10T00:29:14;7.93;;;4.40;;
64816;SDS011;53289;45.602;11.904;2022-10-10T00:31:39;7.85;;;4.70;;
64816;SDS011;53289;45.602;11.904;2022-10-10T00:34:05;8.93;;;4.68;;
64816;SDS011;53289;45.602;11.904;2022-10-10T00:36:31;5.47;;;4.10;;
64816;SDS011;53289;45.602;11.904;2022-10-10T00:38:57;5.97;;;4.30;;
64816;SDS011;53289;45.602;11.904;2022-10-10T00:41:23;9.43;;;5.15;;
64816;SDS011;53289;45.602;11.904;2022-10-10T00:44:00;8.70;;;5.10;;
64816;SDS011;53289;45.602;11.904;2022-10-10T00:46:32;9.50;;;5.38;;
64816;SDS011;53289;45.602;11.904;2022-10-10T00:48:58;9.57;;;5.97;;
64816;SDS011;53289;45.602;11.904;2022-10-10T00:51:25;6.43;;;4.50;;
64816;SDS011;53289;45.602;11.904;2022-10-10T00:53:54;7.75;;;4.85;;
64816;SDS011;53289;45.602;11.904;2022-10-10T00:56:26;6.90;;;4.63;;
64816;SDS011;53289;45.602;11.904;2022-10-10T00:58:57;8.73;;;5.18;;
64816;SDS011;53289;45.602;11.904;2022-10-10T01:01:27;10.80;;;6.03;;
64816;SDS011;53289;45.602;11.904;2022-10-10T01:03:57;8.85;;;4.85;;
64816;SDS011;53289;45.602;11.904;2022-10-10T01:06:25;7.15;;;4.25;;
64816;SDS011;53289;45.602;11.904;2022-10-10T01:08:51;6.97;;;4.35;;
64816;SDS011;53289;45.602;11.904;2022-10-10T01:14:26;5.90;;;4.05;;
64816;SDS011;53289;45.602;11.904;2022-10-10T01:17:06;8.07;;;4.68;;
64816;SDS011;53289;45.602;11.904;2022-10-10T01:25:45;7.55;;;4.60;;
64816;SDS011;53289;45.602;11.904;2022-10-10T01:28:34;7.82;;;4.57;;
64816;SDS011;53289;45.602;11.904;2022-10-10T01:31:06;7.25;;;4.82;;
64816;SDS011;53289;45.602;11.904;2022-10-10T01:33:37;7.32;;;4.78;;
64816;SDS011;53289;45.602;11.904;2022-10-10T01:36:20;7.97;;;4.40;;
64816;SDS011;53289;45.602;11.904;2022-10-10T01:42:12;7.90;;;4.68;;
64816;SDS011;53289;45.602;11.904;2022-10-10T01:44:54;8.15;;;5.07;;
64816;SDS011;53289;45.602;11.904;2022-10-10T01:47:20;7.45;;;4.60;;
64816;SDS011;53289;45.602;11.904;2022-10-10T01:49:48;6.65;;;4.00;;
64816;SDS011;53289;45.602;11.904;2022-10-10T02:04:10;9.43;;;4.65;;
64816;SDS011;53289;45.602;11.904;2022-10-10T02:06:39;8.68;;;5.35;;
64816;SDS011;53289;45.602;11.904;2022-10-10T02:09:12;11.17;;;5.10;;
64816;SDS011;53289;45.602;11.904;2022-10-10T02:11:43;9.88;;;5.30;;
64816;SDS011;53289;45.602;11.904;2022-10-10T02:14:22;8.45;;;4.53;;
64816;SDS011;53289;45.602;11.904;2022-10-10T02:16:52;6.05;;;4.00;;
64816;SDS011;53289;45.602;11.904;2022-10-10T02:19:20;9.68;;;4.90;;
64816;SDS011;53289;45.602;11.904;2022-10-10T02:21:48;8.48;;;4.90;;
64816;SDS011;53289;45.602;11.904;2022-10-10T02:24:17;7.55;;;4.80;;
64816;SDS011;53289;45.602;11.904;2022-10-10T02:26:46;7.47;;;5.07;;
64816;SDS011;53289;45.602;11.904;2022-10-10T02:29:18;6.40;;;4.28;;
64816;SDS011;53289;45.602;11.904;2022-10-10T02:31:55;6.63;;;4.28;;
64816;SDS011;53289;45.602;11.904;2022-10-10T02:34:42;11.75;;;5.30;;
64816;SDS011;53289;45.602;11.904;2022-10-10T02:37:12;6.93;;;4.15;;
64816;SDS011;53289;45.602;11.904;2022-10-10T02:39:41;6.95;;;4.00;;
64816;SDS011;53289;45.602;11.904;2022-10-10T02:42:21;8.93;;;4.57;;
64816;SDS011;53289;45.602;11.904;2022-10-10T02:44:48;6.68;;;4.10;;
64816;SDS011;53289;45.602;11.904;2022-10-10T02:47:14;7.00;;;4.03;;
64816;SDS011;53289;45.602;11.904;2022-10-10T02:49:40;8.05;;;3.95;;
64816;SDS011;53289;45.602;11.904;2022-10-10T02:52:06;8.57;;;3.88;;
64816;SDS011;53289;45.602;11.904;2022-10-10T02:54:33;9.30;;;4.72;;
64816;SDS011;53289;45.602;11.904;2022-10-10T02:56:59;6.50;;;3.65;;
64816;SDS011;53289;45.602;11.904;2022-10-10T02:59:25;5.32;;;3.80;;
64816;SDS011;53289;45.602;11.904;2022-10-10T03:01:51;8.75;;;4.35;;
64816;SDS011;53289;45.602;11.904;2022-10-10T03:04:17;5.40;;;3.90;;
64816;SDS011;53289;45.602;11.904;2022-10-10T03:06:44;9.65;;;4.55;;
64816;SDS011;53289;45.602;11.904;2022-10-10T03:09:09;6.68;;;4.22;;
64816;SDS011;53289;45.602;11.904;2022-10-10T03:11:35;6.88;;;3.83;;
64816;SDS011;53289;45.602;11.904;2022-10-10T03:14:01;6.68;;;4.20;;
64816;SDS011;53289;45.602;11.904;2022-10-10T03:16:27;8.55;;;4.45;;
64816;SDS011;53289;45.602;11.904;2022-10-10T03:18:52;7.57;;;5.13;;
64816;SDS011;53289;45.602;11.904;2022-10-10T03:21:18;9.07;;;4.68;;
64816;SDS011;53289;45.602;11.904;2022-10-10T03:23:44;7.15;;;4.20;;
64816;SDS011;53289;45.602;11.904;2022-10-10T03:26:10;5.78;;;3.70;;
64816;SDS011;53289;45.602;11.904;2022-10-10T03:28:36;5.53;;;3.90;;
64816;SDS011;53289;45.602;11.904;2022-10-10T03:31:02;7.38;;;4.15;;
64816;SDS011;53289;45.602;11.904;2022-10-10T03:33:29;8.38;;;4.30;;
64816;SDS011;53289;45.602;11.904;2022-10-10T03:35:54;7.50;;;4.50;;
64816;SDS011;53289;45.602;11.904;2022-10-10T03:38:20;6.60;;;4.20;;
64816;SDS011;53289;45.602;11.904;2022-10-10T03:40:46;5.97;;;3.88;;
64816;SDS011;53289;45.602;11.904;2022-10-10T03:43:13;5.90;;;3.75;;
64816;SDS011;53289;45.602;11.904;2022-10-10T03:45:42;5.70;;;3.63;;
64816;SDS011;53289;45.602;11.904;2022-10-10T03:48:10;5.25;;;3.70;;
64816;SDS011;53289;45.602;11.904;2022-10-10T03:50:36;7.60;;;3.90;;
64816;SDS011;53289;45.602;11.904;2022-10-10T03:53:02;6.20;;;4.15;;
64816;SDS011;53289;45.602;11.904;2022-10-10T03:55:28;5.20;;;4.00;;
64816;SDS011;53289;45.602;11.904;2022-10-10T03:57:54;6.25;;;4.05;;
64816;SDS011;53289;45.602;11.904;2022-10-10T04:00:20;8.85;;;4.35;;
64816;SDS011;53289;45.602;11.904;2022-10-10T04:02:46;7.13;;;4.30;;
64816;SDS011;53289;45.602;11.904;2022-10-10T04:05:12;8.10;;;4.78;;
64816;SDS011;53289;45.602;11.904;2022-10-10T04:07:37;7.65;;;4.65;;
64816;SDS011;53289;45.602;11.904;2022-10-10T04:10:06;6.88;;;4.30;;
64816;SDS011;53289;45.602;11.904;2022-10-10T04:12:33;8.93;;;4.70;;
64816;SDS011;53289;45.602;11.904;2022-10-10T04:14:59;7.95;;;3.90;;
64816;SDS011;53289;45.602;11.904;2022-10-10T04:17:25;7.45;;;4.65;;
64816;SDS011;53289;45.602;11.904;2022-10-10T04:19:51;8.02;;;4.80;;
64816;SDS011;53289;45.602;11.904;2022-10-10T04:22:17;7.43;;;5.07;;
64816;SDS011;53289;45.602;11.904;2022-10-10T04:24:43;7.90;;;4.43;;
64816;SDS011;53289;45.602;11.904;2022-10-10T04:27:09;7.53;;;3.97;;
64816;SDS011;53289;45.602;11.904;2022-10-10T04:29:35;6.88;;;4.60;;
64816;SDS011;53289;45.602;11.904;2022-10-10T04:32:01;7.88;;;3.92;;
64816;SDS011;53289;45.602;11.904;2022-10-10T04:34:27;8.13;;;4.18;;
64816;SDS011;53289;45.602;11.904;2022-10-10T04:36:53;5.93;;;4.07;;
64816;SDS011;53289;45.602;11.904;2022-10-10T04:39:19;9.18;;;4.38;;
64816;SDS011;53289;45.602;11.904;2022-10-10T04:41:45;7.20;;;3.78;;
64816;SDS011;53289;45.602;11.904;2022-10-10T04:44:17;7.22;;;4.20;;
64816;SDS011;53289;45.602;11.904;2022-10-10T04:46:44;7.75;;;4.10;;
64816;SDS011;53289;45.602;11.904;2022-10-10T04:49:10;7.72;;;3.80;;
64816;SDS011;53289;45.602;11.904;2022-10-10T04:51:36;6.43;;;3.28;;
64816;SDS011;53289;45.602;11.904;2022-10-10T04:54:02;6.63;;;3.85;;
64816;SDS011;53289;45.602;11.904;2022-10-10T04:56:29;9.65;;;4.82;;
64816;SDS011;53289;45.602;11.904;2022-10-10T04:58:55;7.72;;;4.22;;
64816;SDS011;53289;45.602;11.904;2022-10-10T05:01:21;9.98;;;4.88;;
64816;SDS011;53289;45.602;11.904;2022-10-10T05:03:46;11.45;;;5.97;;
64816;SDS011;53289;45.602;11.904;2022-10-10T05:06:12;11.38;;;5.47;;
64816;SDS011;53289;45.602;11.904;2022-10-10T05:08:38;11.52;;;5.72;;
64816;SDS011;53289;45.602;11.904;2022-10-10T05:11:04;11.73;;;5.43;;
64816;SDS011;53289;45.602;11.904;2022-10-10T05:13:30;9.70;;;5.60;;
64816;SDS011;53289;45.602;11.904;2022-10-10T05:15:56;11.82;;;6.30;;
64816;SDS011;53289;45.602;11.904;2022-10-10T05:18:23;10.68;;;5.53;;
64816;SDS011;53289;45.602;11.904;2022-10-10T05:20:49;12.40;;;6.05;;
64816;SDS011;53289;45.602;11.904;2022-10-10T05:23:15;9.43;;;5.47;;
64816;SDS011;53289;45.602;11.904;2022-10-10T05:25:42;10.25;;;5.22;;
64816;SDS011;53289;45.602;11.904;2022-10-10T05:28:09;9.95;;;5.30;;
64816;SDS011;53289;45.602;11.904;2022-10-10T05:30:36;8.95;;;5.20;;
64816;SDS011;53289;45.602;11.904;2022-10-10T05:33:02;8.27;;;5.13;;
64816;SDS011;53289;45.602;11.904;2022-10-10T05:35:28;9.23;;;5.28;;
64816;SDS011;53289;45.602;11.904;2022-10-10T05:37:54;12.20;;;6.25;;
64816;SDS011;53289;45.602;11.904;2022-10-10T05:40:19;12.35;;;5.68;;
64816;SDS011;53289;45.602;11.904;2022-10-10T05:42:45;11.95;;;5.57;;
64816;SDS011;53289;45.602;11.904;2022-10-10T05:45:11;10.60;;;5.18;;
64816;SDS011;53289;45.602;11.904;2022-10-10T05:47:37;9.95;;;5.45;;
64816;SDS011;53289;45.602;11.904;2022-10-10T05:50:03;11.32;;;5.32;;
64816;SDS011;53289;45.602;11.904;2022-10-10T05:52:29;8.93;;;4.82;;
64816;SDS011;53289;45.602;11.904;2022-10-10T05:54:55;11.13;;;5.60;;
64816;SDS011;53289;45.602;11.904;2022-10-10T05:57:21;12.10;;;6.00;;
64816;SDS011;53289;45.602;11.904;2022-10-10T05:59:47;9.40;;;5.18;;
64816;SDS011;53289;45.602;11.904;2022-10-10T06:02:12;9.65;;;5.05;;
64816;SDS011;53289;45.602;11.904;2022-10-10T06:04:39;11.85;;;5.38;;
64816;SDS011;53289;45.602;11.904;2022-10-10T06:07:04;10.68;;;5.18;;
64816;SDS011;53289;45.602;11.904;2022-10-10T06:09:30;10.90;;;5.20;;
64816;SDS011;53289;45.602;11.904;2022-10-10T06:11:56;10.43;;;5.55;;
64816;SDS011;53289;45.602;11.904;2022-10-10T06:14:22;10.00;;;5.65;;
64816;SDS011;53289;45.602;11.904;2022-10-10T06:16:48;10.32;;;5.80;;
64816;SDS011;53289;45.602;11.904;2022-10-10T06:19:14;11.18;;;5.55;;
64816;SDS011;53289;45.602;11.904;2022-10-10T06:21:39;10.32;;;6.00;;
64816;SDS011;53289;45.602;11.904;2022-10-10T06:24:05;11.63;;;5.40;;
64816;SDS011;53289;45.602;11.904;2022-10-10T06:26:32;12.82;;;7.00;;
64816;SDS011;53289;45.602;11.904;2022-10-10T06:28:58;10.30;;;5.10;;
64816;SDS011;53289;45.602;11.904;2022-10-10T06:31:24;9.10;;;5.30;;
64816;SDS011;53289;45.602;11.904;2022-10-10T06:33:50;12.07;;;6.28;;
64816;SDS011;53289;45.602;11.904;2022-10-10T06:36:17;9.52;;;5.38;;
64816;SDS011;53289;45.602;11.904;2022-10-10T06:38:44;10.68;;;5.50;;
64816;SDS011;53289;45.602;11.904;2022-10-10T06:41:11;9.10;;;4.75;;
64816;SDS011;53289;45.602;11.904;2022-10-10T06:43:37;10.77;;;5.45;;
64816;SDS011;53289;45.602;11.904;2022-10-10T06:46:03;8.65;;;5.22;;
64816;SDS011;53289;45.602;11.904;2022-10-10T06:48:29;9.40;;;5.25;;
64816;SDS011;53289;45.602;11.904;2022-10-10T06:53:24;12.32;;;6.00;;
64816;SDS011;53289;45.602;11.904;2022-10-10T06:55:51;11.20;;;5.47;;
64816;SDS011;53289;45.602;11.904;2022-10-10T06:58:19;9.23;;;5.60;;
64816;SDS011;53289;45.602;11.904;2022-10-10T07:00:52;8.05;;;5.30;;
64816;SDS011;53289;45.602;11.904;2022-10-10T07:03:20;16.15;;;6.88;;
64816;SDS011;53289;45.602;11.904;2022-10-10T07:05:52;11.88;;;6.00;;
64816;SDS011;53289;45.602;11.904;2022-10-10T07:08:23;10.88;;;5.70;;
64816;SDS011;53289;45.602;11.904;2022-10-10T07:10:50;13.57;;;6.97;;
64816;SDS011;53289;45.602;11.904;2022-10-10T07:13:16;15.05;;;7.68;;
64816;SDS011;53289;45.602;11.904;2022-10-10T07:15:42;10.55;;;6.13;;
64816;SDS011;53289;45.602;11.904;2022-10-10T07:18:08;10.95;;;6.28;;
64816;SDS011;53289;45.602;11.904;2022-10-10T07:20:34;9.38;;;6.03;;
64816;SDS011;53289;45.602;11.904;2022-10-10T07:23:01;11.07;;;6.68;;
64816;SDS011;53289;45.602;11.904;2022-10-10T07:25:27;11.40;;;6.03;;
64816;SDS011;53289;45.602;11.904;2022-10-10T07:27:54;9.77;;;5.60;;
64816;SDS011;53289;45.602;11.904;2022-10-10T07:30:21;9.77;;;5.70;;
64816;SDS011;53289;45.602;11.904;2022-10-10T07:32:53;11.40;;;6.72;;
64816;SDS011;53289;45.602;11.904;2022-10-10T07:35:19;10.05;;;5.72;;
64816;SDS011;53289;45.602;11.904;2022-10-10T07:37:46;13.23;;;6.93;;
64816;SDS011;53289;45.602;11.904;2022-10-10T07:40:12;23.63;;;8.18;;
64816;SDS011;53289;45.602;11.904;2022-10-10T07:42:39;14.18;;;6.78;;
64816;SDS011;53289;45.602;11.904;2022-10-10T07:45:05;14.70;;;6.55;;
64816;SDS011;53289;45.602;11.904;2022-10-10T07:47:31;11.85;;;6.55;;
64816;SDS011;53289;45.602;11.904;2022-10-10T07:49:57;12.88;;;5.75;;
64816;SDS011;53289;45.602;11.904;2022-10-10T07:52:23;15.25;;;7.28;;
64816;SDS011;53289;45.602;11.904;2022-10-10T07:54:48;8.50;;;5.68;;
64816;SDS011;53289;45.602;11.904;2022-10-10T07:57:14;10.60;;;5.45;;
64816;SDS011;53289;45.602;11.904;2022-10-10T07:59:40;11.18;;;5.57;;
64816;SDS011;53289;45.602;11.904;2022-10-10T08:02:09;11.25;;;6.85;;
64816;SDS011;53289;45.602;11.904;2022-10-10T08:04:36;8.02;;;5.47;;
64816;SDS011;53289;45.602;11.904;2022-10-10T08:07:01;13.98;;;7.50;;
64816;SDS011;53289;45.602;11.904;2022-10-10T08:09:28;14.48;;;6.65;;
64816;SDS011;53289;45.602;11.904;2022-10-10T08:11:53;13.02;;;6.85;;
64816;SDS011;53289;45.602;11.904;2022-10-10T08:14:19;10.63;;;6.18;;
64816;SDS011;53289;45.602;11.904;2022-10-10T08:16:45;12.60;;;7.72;;
64816;SDS011;53289;45.602;11.904;2022-10-10T08:19:11;9.50;;;6.57;;
64816;SDS011;53289;45.602;11.904;2022-10-10T08:21:37;13.88;;;8.10;;
64816;SDS011;53289;45.602;11.904;2022-10-10T08:24:03;8.88;;;5.95;;
64816;SDS011;53289;45.602;11.904;2022-10-10T08:26:29;11.57;;;8.00;;
64816;SDS011;53289;45.602;11.904;2022-10-10T08:28:54;11.13;;;7.05;;
64816;SDS011;53289;45.602;11.904;2022-10-10T08:31:20;9.52;;;6.20;;
64816;SDS011;53289;45.602;11.904;2022-10-10T08:33:47;10.93;;;6.90;;
64816;SDS011;53289;45.602;11.904;2022-10-10T08:36:18;10.93;;;6.68;;
64816;SDS011;53289;45.602;11.904;2022-10-10T08:38:47;13.25;;;6.78;;
64816;SDS011;53289;45.602;11.904;2022-10-10T08:41:37;11.48;;;6.43;;
64816;SDS011;53289;45.602;11.904;2022-10-10T08:44:11;11.10;;;6.68;;
64816;SDS011;53289;45.602;11.904;2022-10-10T08:47:03;12.32;;;6.22;;
64816;SDS011;53289;45.602;11.904;2022-10-10T08:49:49;18.40;;;8.18;;
64816;SDS011;53289;45.602;11.904;2022-10-10T08:54:54;12.18;;;6.90;;
64816;SDS011;53289;45.602;11.904;2022-10-10T08:57:23;10.88;;;6.13;;
64816;SDS011;53289;45.602;11.904;2022-10-10T08:59:55;10.30;;;6.38;;
64816;SDS011;53289;45.602;11.904;2022-10-10T09:02:38;12.20;;;6.78;;
64816;SDS011;53289;45.602;11.904;2022-10-10T09:05:13;10.48;;;6.15;;
64816;SDS011;53289;45.602;11.904;2022-10-10T09:15:55;11.95;;;6.38;;
64816;SDS011;53289;45.602;11.904;2022-10-10T09:21:28;11.57;;;6.85;;
64816;SDS011;53289;45.602;11.904;2022-10-10T09:29:51;12.90;;;6.68;;
64816;SDS011;53289;45.602;11.904;2022-10-10T09:32:23;10.95;;;6.72;;
64816;SDS011;53289;45.602;11.904;2022-10-10T09:34:58;12.18;;;6.75;;
64816;SDS011;53289;45.602;11.904;2022-10-10T09:37:45;13.05;;;6.80;;
64816;SDS011;53289;45.602;11.904;2022-10-10T09:40:17;14.05;;;5.97;;
64816;SDS011;53289;45.602;11.904;2022-10-10T09:42:52;8.77;;;5.50;;
64816;SDS011;53289;45.602;11.904;2022-10-10T09:45:25;14.35;;;5.90;;
64816;SDS011;53289;45.602;11.904;2022-10-10T09:47:55;11.23;;;6.30;;
64816;SDS011;53289;45.602;11.904;2022-10-10T09:50:23;9.88;;;5.60;;
64816;SDS011;53289;45.602;11.904;2022-10-10T09:52:49;8.80;;;5.55;;
64816;SDS011;53289;45.602;11.904;2022-10-10T09:57:51;10.55;;;5.38;;
64816;SDS011;53289;45.602;11.904;2022-10-10T10:02:47;10.05;;;5.78;;
64816;SDS011;53289;45.602;11.904;2022-10-10T10:05:23;12.18;;;5.78;;
64816;SDS011;53289;45.602;11.904;2022-10-10T10:07:50;11.43;;;5.55;;
64816;SDS011;53289;45.602;11.904;2022-10-10T10:10:17;8.10;;;5.00;;
64816;SDS011;53289;45.602;11.904;2022-10-10T10:12:46;10.05;;;5.90;;
64816;SDS011;53289;45.602;11.904;2022-10-10T10:15:25;10.57;;;4.95;;
64816;SDS011;53289;45.602;11.904;2022-10-10T10:20:45;8.43;;;5.22;;
64816;SDS011;53289;45.602;11.904;2022-10-10T10:23:24;9.18;;;5.30;;
64816;SDS011;53289;45.602;11.904;2022-10-10T10:28:52;8.18;;;5.40;;
64816;SDS011;53289;45.602;11.904;2022-10-10T10:31:23;12.48;;;5.50;;
64816;SDS011;53289;45.602;11.904;2022-10-10T10:40:14;9.75;;;5.20;;
64816;SDS011;53289;45.602;11.904;2022-10-10T10:45:36;10.38;;;5.30;;
64816;SDS011;53289;45.602;11.904;2022-10-10T10:58:47;9.55;;;5.72;;
64816;SDS011;53289;45.602;11.904;2022-10-10T11:03:58;10.70;;;5.20;;
64816;SDS011;53289;45.602;11.904;2022-10-10T11:09:38;7.47;;;4.90;;
64816;SDS011;53289;45.602;11.904;2022-10-10T11:17:51;8.85;;;5.07;;
64816;SDS011;53289;45.602;11.904;2022-10-10T11:20:40;8.73;;;5.55;;
64816;SDS011;53289;45.602;11.904;2022-10-10T11:23:21;10.15;;;5.10;;
64816;SDS011;53289;45.602;11.904;2022-10-10T11:26:04;9.65;;;4.70;;
64816;SDS011;53289;45.602;11.904;2022-10-10T11:28:59;9.77;;;4.95;;
64816;SDS011;53289;45.602;11.904;2022-10-10T11:31:40;6.60;;;5.22;;
64816;SDS011;53289;45.602;11.904;2022-10-10T11:34:18;8.57;;;4.65;;
64816;SDS011;53289;45.602;11.904;2022-10-10T11:36:53;7.63;;;4.60;;
64816;SDS011;53289;45.602;11.904;2022-10-10T11:39:26;10.20;;;4.82;;
64816;SDS011;53289;45.602;11.904;2022-10-10T11:45:13;8.27;;;4.75;;
64816;SDS011;53289;45.602;11.904;2022-10-10T11:55:39;8.15;;;4.75;;
64816;SDS011;53289;45.602;11.904;2022-10-10T12:00:55;8.40;;;4.95;;
64816;SDS011;53289;45.602;11.904;2022-10-10T12:03:25;6.47;;;4.53;;
64816;SDS011;53289;45.602;11.904;2022-10-10T12:06:06;10.70;;;5.40;;
64816;SDS011;53289;45.602;11.904;2022-10-10T12:09:07;9.27;;;5.28;;
64816;SDS011;53289;45.602;11.904;2022-10-10T12:14:08;9.48;;;4.78;;
64816;SDS011;53289;45.602;11.904;2022-10-10T12:16:38;7.47;;;4.90;;
64816;SDS011;53289;45.602;11.904;2022-10-10T12:21:48;8.27;;;4.68;;
64816;SDS011;53289;45.602;11.904;2022-10-10T12:24:18;8.50;;;4.65;;
64816;SDS011;53289;45.602;11.904;2022-10-10T12:38:15;7.20;;;4.90;;
64816;SDS011;53289;45.602;11.904;2022-10-10T12:40:28;7.72;;;5.28;;
64816;SDS011;53289;45.602;11.904;2022-10-10T12:46:05;8.65;;;4.85;;
64816;SDS011;53289;45.602;11.904;2022-10-10T12:48:22;6.90;;;4.75;;
64816;SDS011;53289;45.602;11.904;2022-10-10T12:50:56;8.63;;;5.03;;
64816;SDS011;53289;45.602;11.904;2022-10-10T12:53:25;9.27;;;5.30;;
64816;SDS011;53289;45.602;11.904;2022-10-10T12:55:54;7.50;;;4.85;;
64816;SDS011;53289;45.602;11.904;2022-10-10T12:58:43;7.50;;;4.95;;
64816;SDS011;53289;45.602;11.904;2022-10-10T13:01:22;8.20;;;4.93;;
64816;SDS011;53289;45.602;11.904;2022-10-10T13:03:58;10.02;;;5.22;;
64816;SDS011;53289;45.602;11.904;2022-10-10T13:06:33;8.65;;;4.80;;
64816;SDS011;53289;45.602;11.904;2022-10-10T13:09:09;7.53;;;4.88;;
64816;SDS011;53289;45.602;11.904;2022-10-10T13:11:55;8.40;;;5.43;;
64816;SDS011;53289;45.602;11.904;2022-10-10T13:14:24;8.07;;;5.72;;
64816;SDS011;53289;45.602;11.904;2022-10-10T13:16:52;8.25;;;5.45;;
64816;SDS011;53289;45.602;11.904;2022-10-10T13:19:20;7.72;;;5.40;;
64816;SDS011;53289;45.602;11.904;2022-10-10T13:21:48;7.15;;;5.28;;
64816;SDS011;53289;45.602;11.904;2022-10-10T13:24:17;10.68;;;5.28;;
64816;SDS011;53289;45.602;11.904;2022-10-10T13:26:46;8.32;;;5.18;;
64816;SDS011;53289;45.602;11.904;2022-10-10T13:29:21;9.85;;;5.75;;
64816;SDS011;53289;45.602;11.904;2022-10-10T13:32:17;14.80;;;6.07;;
64816;SDS011;53289;45.602;11.904;2022-10-10T13:35:05;9.20;;;5.20;;
64816;SDS011;53289;45.602;11.904;2022-10-10T13:37:38;8.23;;;4.97;;
64816;SDS011;53289;45.602;11.904;2022-10-10T13:40:16;8.00;;;4.90;;
64816;SDS011;53289;45.602;11.904;2022-10-10T13:42:45;8.18;;;4.88;;
64816;SDS011;53289;45.602;11.904;2022-10-10T13:48:18;8.15;;;4.97;;
64816;SDS011;53289;45.602;11.904;2022-10-10T13:51:04;6.93;;;5.25;;
64816;SDS011;53289;45.602;11.904;2022-10-10T13:53:33;10.35;;;5.30;;
64816;SDS011;53289;45.602;11.904;2022-10-10T14:04:04;8.57;;;5.35;;
64816;SDS011;53289;45.602;11.904;2022-10-10T14:06:31;8.95;;;5.22;;
64816;SDS011;53289;45.602;11.904;2022-10-10T14:11:47;8.23;;;4.72;;
64816;SDS011;53289;45.602;11.904;2022-10-10T14:14:22;10.23;;;5.32;;
64816;SDS011;53289;45.602;11.904;2022-10-10T14:16:57;9.13;;;5.43;;
64816;SDS011;53289;45.602;11.904;2022-10-10T14:19:23;8.18;;;5.50;;
64816;SDS011;53289;45.602;11.904;2022-10-10T14:21:49;9.85;;;5.43;;
64816;SDS011;53289;45.602;11.904;2022-10-10T14:24:15;7.53;;;5.32;;
64816;SDS011;53289;45.602;11.904;2022-10-10T14:26:41;6.88;;;5.20;;
64816;SDS011;53289;45.602;11.904;2022-10-10T14:29:14;9.68;;;5.80;;
64816;SDS011;53289;45.602;11.904;2022-10-10T14:31:41;9.68;;;4.80;;
64816;SDS011;53289;45.602;11.904;2022-10-10T14:34:08;7.85;;;5.20;;
64816;SDS011;53289;45.602;11.904;2022-10-10T14:36:39;9.38;;;5.28;;
64816;SDS011;53289;45.602;11.904;2022-10-10T14:39:14;8.68;;;5.20;;
64816;SDS011;53289;45.602;11.904;2022-10-10T14:41:41;8.15;;;5.10;;
64816;SDS011;53289;45.602;11.904;2022-10-10T14:44:08;7.78;;;5.07;;
64816;SDS011;53289;45.602;11.904;2022-10-10T14:46:35;8.10;;;5.40;;
64816;SDS011;53289;45.602;11.904;2022-10-10T14:49:02;8.38;;;5.25;;
64816;SDS011;53289;45.602;11.904;2022-10-10T14:51:30;8.50;;;5.55;;
64816;SDS011;53289;45.602;11.904;2022-10-10T14:54:03;8.40;;;4.80;;
64816;SDS011;53289;45.602;11.904;2022-10-10T14:56:30;8.45;;;4.90;;
64816;SDS011;53289;45.602;11.904;2022-10-10T14:58:57;7.00;;;4.78;;
64816;SDS011;53289;45.602;11.904;2022-10-10T15:01:23;8.23;;;5.15;;
64816;SDS011;53289;45.602;11.904;2022-10-10T15:03:49;10.88;;;5.22;;
64816;SDS011;53289;45.602;11.904;2022-10-10T15:06:15;9.57;;;5.80;;
64816;SDS011;53289;45.602;11.904;2022-10-10T15:08:41;8.95;;;5.20;;
64816;SDS011;53289;45.602;11.904;2022-10-10T15:11:08;9.30;;;5.22;;
64816;SDS011;53289;45.602;11.904;2022-10-10T15:13:39;11.20;;;5.65;;
64816;SDS011;53289;45.602;11.904;2022-10-10T15:16:06;7.28;;;5.30;;
64816;SDS011;53289;45.602;11.904;2022-10-10T15:18:32;6.95;;;5.05;;
64816;SDS011;53289;45.602;11.904;2022-10-10T15:20:58;8.68;;;4.82;;
64816;SDS011;53289;45.602;11.904;2022-10-10T15:23:24;8.18;;;4.43;;
64816;SDS011;53289;45.602;11.904;2022-10-10T15:25:51;10.18;;;5.03;;
64816;SDS011;53289;45.602;11.904;2022-10-10T15:28:17;9.38;;;5.07;;
64816;SDS011;53289;45.602;11.904;2022-10-10T15:30:43;7.18;;;4.63;;
64816;SDS011;53289;45.602;11.904;2022-10-10T15:33:10;10.52;;;5.28;;
64816;SDS011;53289;45.602;11.904;2022-10-10T15:35:36;6.38;;;4.63;;
64816;SDS011;53289;45.602;11.904;2022-10-10T15:38:02;6.18;;;4.05;;
64816;SDS011;53289;45.602;11.904;2022-10-10T15:40:28;9.45;;;4.97;;
64816;SDS011;53289;45.602;11.904;2022-10-10T15:42:54;8.27;;;4.80;;
64816;SDS011;53289;45.602;11.904;2022-10-10T15:45:20;8.27;;;4.70;;
64816;SDS011;53289;45.602;11.904;2022-10-10T15:47:46;8.18;;;4.90;;
64816;SDS011;53289;45.602;11.904;2022-10-10T15:50:14;8.05;;;4.63;;
64816;SDS011;53289;45.602;11.904;2022-10-10T15:52:40;7.07;;;4.80;;
64816;SDS011;53289;45.602;11.904;2022-10-10T15:55:05;8.73;;;5.00;;
64816;SDS011;53289;45.602;11.904;2022-10-10T15:57:32;11.25;;;5.20;;
64816;SDS011;53289;45.602;11.904;2022-10-10T15:59:58;8.02;;;4.65;;
64816;SDS011;53289;45.602;11.904;2022-10-10T16:02:24;8.35;;;4.53;;
64816;SDS011;53289;45.602;11.904;2022-10-10T16:04:50;7.75;;;4.43;;
64816;SDS011;53289;45.602;11.904;2022-10-10T16:07:16;7.70;;;5.13;;
64816;SDS011;53289;45.602;11.904;2022-10-10T16:09:42;8.82;;;5.05;;
64816;SDS011;53289;45.602;11.904;2022-10-10T16:12:08;9.50;;;5.75;;
64816;SDS011;53289;45.602;11.904;2022-10-10T16:14:34;10.38;;;5.88;;
64816;SDS011;53289;45.602;11.904;2022-10-10T16:17:00;8.82;;;5.63;;
64816;SDS011;53289;45.602;11.904;2022-10-10T16:19:26;8.57;;;5.88;;
64816;SDS011;53289;45.602;11.904;2022-10-10T16:21:52;9.93;;;5.80;;
64816;SDS011;53289;45.602;11.904;2022-10-10T16:24:18;12.32;;;5.90;;
64816;SDS011;53289;45.602;11.904;2022-10-10T16:26:44;11.63;;;6.45;;
64816;SDS011;53289;45.602;11.904;2022-10-10T16:29:10;12.80;;;6.78;;
64816;SDS011;53289;45.602;11.904;2022-10-10T16:31:37;9.70;;;5.57;;
64816;SDS011;53289;45.602;11.904;2022-10-10T16:34:07;9.45;;;5.68;;
64816;SDS011;53289;45.602;11.904;2022-10-10T16:36:37;9.25;;;5.80;;
64816;SDS011;53289;45.602;11.904;2022-10-10T16:39:03;9.80;;;6.18;;
64816;SDS011;53289;45.602;11.904;2022-10-10T16:41:31;10.65;;;5.70;;
64816;SDS011;53289;45.602;11.904;2022-10-10T16:43:58;11.45;;;5.95;;
64816;SDS011;53289;45.602;11.904;2022-10-10T16:46:26;10.55;;;6.10;;
64816;SDS011;53289;45.602;11.904;2022-10-10T16:48:52;10.45;;;5.93;;
64816;SDS011;53289;45.602;11.904;2022-10-10T16:51:21;9.27;;;5.72;;
64816;SDS011;53289;45.602;11.904;2022-10-10T16:53:48;10.75;;;5.40;;
64816;SDS011;53289;45.602;11.904;2022-10-10T16:56:16;11.20;;;5.57;;